KMSP/MSP METAR and TAF weather

Enter ICAO airport designator
Station Type Date Time Source
KMSP METAR 2020/04/04 11:53 UTC NOAA

KMSP 041153Z 33007KT 10SM FEW015 FEW140 M07/M09 A3029 RMK AO2 SLP271 70002 T10671094 11039 21072 53009


Station Type Date Time Source
KMSP Decoded METAR 2020/04/04 11:53 UTC NOAA

MINNEAPOLIS-ST PAUL INTERNATIONAL , MN, United States (KMSP) 44-52N 93-13W 265M
Apr 04, 2020 - 07:53 AM EDT / 2020.04.04 1153 UTC
Wind: from the NNW (330 degrees) at 8 MPH (7 KT):0
Visibility: 10 mile(s):0
Sky conditions: mostly clear
Temperature: 19.9 F (-6.7 C)
Windchill: 10 F (-12 C):1
Dew Point: 15.1 F (-9.4 C)
Relative Humidity: 81%
Pressure (altimeter): 30.29 in. Hg (1025 hPa)
Pressure tendency: 0.03 inches (0.9 hPa) higher than three hours ago
ob: KMSP 041153Z 33007KT 10SM FEW015 FEW140 M07/M09 A3029 RMK AO2 SLP271 70002 T10671094 11039 21072 53009
cycle: 12

Station Type Date Time Source
KMSP TAF 2020/04/04 12:22 UTC NOAA

TAF KMSP 041120Z 0412/0518 33006KT P6SM SKC
FM042200 12004KT P6SM SKC

Example: see airport list